Time;durP1;ratioP1;P1;durP2;ratioP2;P2;SDS_P1;SDS_P2;PMS_P1;PMS_P2;Temp;Humidity;BMP_temperature;BMP_pressure;BME280_temperature;BME280_humidity;BME280_pressure;Samples;Min_cycle;Max_cycle;Signal;HPM_P1;HPM_P2
2022/01/28 00:04:52;;;;;;;6.33;2.37;;;4.90;1.00;;;;;;5064378;28;20978;-74
2022/01/28 00:07:18;;;;;;;2.30;2.10;;;4.90;1.00;;;;;;5053327;28;20171;-74
2022/01/28 00:09:44;;;;;;;4.53;1.80;;;5.10;1.00;;;;;;5053616;28;20386;-74
2022/01/28 00:12:14;;;;;;;3.63;2.40;;;5.10;1.00;;;;;;5057345;28;20494;-74
2022/01/28 00:14:56;;;;;;;3.50;2.27;;;5.10;1.00;;;;;;5061844;28;20183;-74
2022/01/28 00:36:58;;;;;;;1.60;1.50;;;5.00;1.00;;;;;;5063576;28;20536;-74
2022/01/28 00:39:24;;;;;;;2.53;2.33;;;5.00;1.00;;;;;;5063254;28;20422;-74
2022/01/28 00:41:50;;;;;;;2.13;1.83;;;5.10;1.00;;;;;;5073544;28;20432;-74
2022/01/28 00:44:16;;;;;;;9.70;2.67;;;5.10;1.00;;;;;;5070114;28;20500;-75
2022/01/28 00:46:41;;;;;;;2.70;2.50;;;5.10;1.00;;;;;;5061148;28;20436;-75
2022/01/28 00:49:10;;;;;;;2.40;2.10;;;5.20;1.00;;;;;;5070498;28;20186;-74
2022/01/28 00:51:36;;;;;;;4.83;2.37;;;5.20;1.00;;;;;;5056440;28;20562;-75
2022/01/28 00:54:02;;;;;;;10.53;1.70;;;5.20;1.00;;;;;;5056586;28;20394;-75
2022/01/28 00:56:27;;;;;;;2.50;1.90;;;5.30;1.00;;;;;;5056487;28;20441;-75
2022/01/28 00:58:56;;;;;;;6.90;2.40;;;5.30;1.00;;;;;;5057003;28;20171;-74
2022/01/28 01:01:29;;;;;;;3.27;2.67;;;5.30;1.00;;;;;;5065019;28;20183;-74
2022/01/28 01:03:59;;;;;;;2.73;2.23;;;5.30;1.00;;;;;;5058619;28;20768;-74
2022/01/28 01:06:33;;;;;;;5.13;2.23;;;5.30;1.00;;;;;;5067166;28;20907;-74
2022/01/28 01:09:00;;;;;;;6.83;2.20;;;5.40;1.00;;;;;;5064692;28;20472;-75
2022/01/28 01:11:27;;;;;;;2.40;1.70;;;5.30;1.00;;;;;;5055931;28;20418;-74
2022/01/28 01:13:55;;;;;;;2.10;2.00;;;5.40;1.00;;;;;;5069804;28;20430;-74
2022/01/28 01:16:30;;;;;;;3.53;2.20;;;5.40;1.00;;;;;;5055780;28;20798;-74
2022/01/28 01:19:18;;;;;;;2.90;1.87;;;5.30;1.00;;;;;;5069727;28;20417;-74
2022/01/28 01:21:44;;;;;;;2.20;1.40;;;5.20;1.00;;;;;;5064600;28;20496;-74
2022/01/28 01:24:20;;;;;;;1.63;1.33;;;5.20;1.00;;;;;;5076122;28;20555;-74
2022/01/28 01:26:46;;;;;;;1.40;1.30;;;5.20;1.00;;;;;;5058342;28;20169;-74
2022/01/28 01:29:13;;;;;;;3.87;1.97;;;5.10;1.00;;;;;;5055188;28;20505;-74
2022/01/28 01:31:42;;;;;;;2.20;2.00;;;5.00;1.00;;;;;;5067822;28;20221;-74
2022/01/28 01:34:15;;;;;;;1.00;1.00;;;;;;;;;;5055859;28;20410;-74
2022/01/28 01:36:42;;;;;;;0.80;0.80;;;5.00;1.00;;;;;;5069047;28;20785;-74
2022/01/28 01:39:09;;;;;;;5.33;1.27;;;4.90;1.00;;;;;;5067722;28;20809;-74
2022/01/28 01:41:44;;;;;;;3.47;1.50;;;4.80;1.00;;;;;;5059146;28;20513;-74
2022/01/28 01:52:40;;;;;;;1.63;1.25;;;4.70;1.00;;;;;;5061351;28;20946;-74
2022/01/28 01:55:07;;;;;;;5.00;1.70;;;4.70;1.00;;;;;;5066048;28;20278;-74
2022/01/28 01:57:33;;;;;;;2.60;1.83;;;4.70;1.00;;;;;;5057956;28;20179;-74
2022/01/28 02:00:00;;;;;;;1.10;1.10;;;4.70;1.00;;;;;;5065411;28;20410;-74
2022/01/28 02:02:25;;;;;;;2.30;1.03;;;4.70;1.00;;;;;;5066281;28;20479;-74
2022/01/28 02:04:56;;;;;;;3.13;1.47;;;4.70;1.00;;;;;;5065616;28;20481;-74
2022/01/28 02:07:24;;;;;;;2.57;1.13;;;4.70;1.00;;;;;;5054982;28;20421;-75
2022/01/28 02:09:50;;;;;;;7.10;1.40;;;4.60;1.00;;;;;;5055185;28;20743;-74
2022/01/28 02:12:16;;;;;;;4.20;1.20;;;4.60;1.00;;;;;;5068400;28;20440;-74
2022/01/28 02:14:42;;;;;;;1.83;0.90;;;4.60;1.00;;;;;;5054890;28;20172;-75
2022/01/28 02:17:09;;;;;;;1.40;1.30;;;4.60;1.00;;;;;;5068439;28;20223;-74
2022/01/28 02:19:35;;;;;;;0.90;0.80;;;4.70;1.00;;;;;;5066912;28;20429;-75
2022/01/28 02:22:01;;;;;;;6.30;1.10;;;4.70;1.00;;;;;;5056370;28;20472;-75
2022/01/28 02:24:44;;;;;;;5.30;1.83;;;4.70;1.00;;;;;;5055588;28;20454;-74
2022/01/28 02:27:12;;;;;;;2.40;1.07;;;4.70;1.00;;;;;;5042675;28;20432;-74
2022/01/28 02:29:38;;;;;;;1.20;0.70;;;4.80;1.00;;;;;;5068224;28;20429;-75
2022/01/28 02:32:08;;;;;;;1.23;0.80;;;4.80;1.00;;;;;;5054411;28;20411;-74
2022/01/28 02:34:50;;;;;;;1.00;0.90;;;4.90;1.00;;;;;;5056204;28;20172;-74
2022/01/28 02:37:22;;;;;;;0.50;0.50;;;4.90;1.00;;;;;;5064359;28;20499;-75
2022/01/28 02:39:47;;;;;;;4.33;1.07;;;5.00;1.00;;;;;;5058251;28;20865;-74
2022/01/28 02:42:20;;;;;;;0.93;0.90;;;5.00;1.00;;;;;;5063007;28;20450;-74
2022/01/28 02:44:54;;;;;;;1.80;1.37;;;5.10;1.00;;;;;;5054508;28;20164;-74
2022/01/28 02:47:31;;;;;;;1.43;0.60;;;5.00;1.00;;;;;;5061201;28;20417;-74
2022/01/28 02:50:06;;;;;;;0.50;0.50;;;4.90;1.00;;;;;;5054424;28;20412;-74
2022/01/28 02:52:38;;;;;;;1.00;0.90;;;4.90;1.00;;;;;;5062838;28;20426;-74
2022/01/28 02:55:09;;;;;;;0.70;0.70;;;4.90;1.00;;;;;;5064200;28;20944;-74
2022/01/28 02:57:52;;;;;;;0.53;0.53;;;4.80;1.00;;;;;;5060472;28;20417;-74
2022/01/28 03:00:21;;;;;;;3.53;0.70;;;4.90;1.00;;;;;;5074346;28;20871;-74
2022/01/28 03:02:46;;;;;;;0.73;0.60;;;4.80;1.00;;;;;;5052935;28;20865;-74
2022/01/28 03:07:43;;;;;;;2.30;1.30;;;4.80;1.00;;;;;;5062364;28;20627;-75
2022/01/28 03:10:28;;;;;;;5.27;1.40;;;4.80;1.00;;;;;;5067812;28;20509;-75
2022/01/28 03:13:16;;;;;;;1.00;0.80;;;4.70;1.00;;;;;;5053524;28;20202;-75
2022/01/28 03:15:51;;;;;;;3.70;1.57;;;4.70;1.00;;;;;;5067453;28;20449;-74
2022/01/28 03:18:22;;;;;;;0.70;0.60;;;4.60;1.00;;;;;;5054549;28;20424;-74
2022/01/28 03:23:20;;;;;;;1.20;1.10;;;4.50;1.00;;;;;;5053293;28;20866;-74
2022/01/28 03:25:47;;;;;;;9.23;1.03;;;4.40;1.00;;;;;;5053695;28;20447;-74
2022/01/28 03:28:21;;;;;;;1.37;1.27;;;4.30;1.00;;;;;;5066922;28;20430;-74
2022/01/28 03:30:47;;;;;;;1.37;0.97;;;4.30;1.00;;;;;;5053009;28;20429;-74
2022/01/28 03:33:14;;;;;;;0.97;0.80;;;4.20;1.00;;;;;;5053198;28;20421;-75
2022/01/28 03:35:41;;;;;;;1.37;0.90;;;;;;;;;;5053791;28;20199;-74
2022/01/28 03:38:32;;;;;;;4.10;1.40;;;4.20;1.00;;;;;;5067186;28;20409;-75
2022/01/28 03:40:58;;;;;;;1.33;1.10;;;4.10;1.00;;;;;;5067160;28;20454;-74
2022/01/28 03:43:24;;;;;;;3.17;1.30;;;4.00;1.00;;;;;;5060389;28;20508;-74
2022/01/28 03:45:50;;;;;;;0.80;0.80;;;4.00;1.00;;;;;;5060247;28;20172;-74
2022/01/28 03:48:16;;;;;;;0.77;0.77;;;4.00;1.00;;;;;;5060763;28;20183;-74
2022/01/28 03:51:08;;;;;;;1.40;1.30;;;3.90;1.00;;;;;;5059849;28;20422;-74
2022/01/28 03:53:34;;;;;;;0.68;0.68;;;3.80;1.00;;;;;;5068445;28;20228;-74
2022/01/28 03:56:00;;;;;;;2.92;0.77;;;3.80;1.00;;;;;;5064278;28;20201;-74
2022/01/28 03:58:27;;;;;;;1.20;1.00;;;3.80;1.00;;;;;;5061681;28;20172;-74
2022/01/28 04:00:56;;;;;;;2.15;1.10;;;3.70;1.00;;;;;;5071228;28;20171;-74
2022/01/28 04:14:39;;;;;;;4.72;1.00;;;3.70;1.00;;;;;;5063789;28;20183;-75
2022/01/28 04:17:21;;;;;;;0.90;0.90;;;3.60;1.00;;;;;;5059453;28;20245;-74
2022/01/28 04:19:51;;;;;;;2.13;1.60;;;3.60;1.00;;;;;;5055914;28;20571;-75
2022/01/28 04:22:18;;;;;;;2.00;1.10;;;3.60;1.00;;;;;;5053668;28;20647;-74
2022/01/28 04:24:44;;;;;;;19.80;1.38;;;3.60;1.00;;;;;;5056887;28;20884;-74
2022/01/28 04:27:15;;;;;;;1.37;0.80;;;3.70;1.00;;;;;;5064082;28;20669;-75
2022/01/28 04:29:41;;;;;;;2.07;1.17;;;3.80;1.00;;;;;;5063040;28;20464;-74
2022/01/28 04:32:09;;;;;;;3.23;1.23;;;4.00;1.00;;;;;;5057144;28;20390;-74
2022/01/28 04:34:35;;;;;;;1.83;1.27;;;4.10;1.00;;;;;;5069701;28;20429;-74
2022/01/28 04:37:14;;;;;;;9.33;1.20;;;4.00;1.00;;;;;;5057405;28;20854;-74
2022/01/28 04:43:02;;;;;;;1.87;1.27;;;4.20;1.00;;;;;;5066873;28;20409;-74
2022/01/28 04:45:18;;;;;;;2.40;1.20;;;4.30;1.00;;;;;;5058031;28;20441;-74
2022/01/28 04:56:00;;;;;;;1.97;1.10;;;4.20;1.00;;;;;;5052469;28;20796;-74
2022/01/28 05:01:21;;;;;;;1.63;1.07;;;4.10;1.00;;;;;;5034521;28;20157;-74
2022/01/28 05:04:17;;;;;;;16.57;1.17;;;4.20;1.00;;;;;;5036186;28;20184;-75
2022/01/28 05:25:48;;;;;;;2.70;1.10;;;4.20;1.00;;;;;;4975795;28;20241;-74
2022/01/28 05:28:19;;;;;;;6.38;1.17;;;4.20;1.00;;;;;;4974304;28;20992;-74
2022/01/28 05:30:45;;;;;;;2.50;1.17;;;4.20;1.00;;;;;;4974599;28;20175;-74
2022/01/28 05:33:10;;;;;;;1.30;1.17;;;4.10;1.00;;;;;;4974919;28;20816;-74
2022/01/28 05:35:36;;;;;;;8.53;1.23;;;4.20;1.00;;;;;;4974788;28;20461;-74
2022/01/28 05:38:02;;;;;;;3.13;1.27;;;4.10;1.00;;;;;;4978824;28;20551;-76
2022/01/28 05:40:28;;;;;;;13.17;1.67;;;4.10;1.00;;;;;;4991199;28;20198;-75
2022/01/28 05:42:54;;;;;;;4.50;0.90;;;4.20;1.00;;;;;;4981498;28;20480;-75
2022/01/28 05:45:27;;;;;;;8.57;6.87;;;4.20;1.00;;;;;;4970391;28;20677;-73
2022/01/28 05:47:58;;;;;;;1.50;1.00;;;4.30;1.00;;;;;;4963699;28;20206;-75
2022/01/28 05:50:32;;;;;;;2.50;1.00;;;4.20;1.00;;;;;;4981610;28;20410;-75
2022/01/28 05:53:03;;;;;;;2.23;1.00;;;4.20;1.00;;;;;;4974972;28;20425;-75
2022/01/28 05:55:34;;;;;;;10.60;1.40;;;4.40;1.00;;;;;;4975677;28;20847;-74
2022/01/28 05:58:02;;;;;;;28.67;0.90;;;4.40;1.00;;;;;;4986465;28;20421;-74
2022/01/28 06:00:28;;;;;;;7.90;1.30;;;4.50;1.00;;;;;;5056591;28;20421;-73
2022/01/28 06:02:54;;;;;;;9.03;1.37;;;;;;;;;;5067292;28;20463;-73
2022/01/28 06:05:20;;;;;;;2.83;1.10;;;4.60;1.00;;;;;;5057796;28;20514;-74
2022/01/28 06:07:45;;;;;;;8.10;1.13;;;4.70;1.00;;;;;;5063536;28;20416;-74
2022/01/28 06:10:20;;;;;;;3.13;1.67;;;4.80;1.00;;;;;;5061452;28;20179;-73
2022/01/28 06:12:49;;;;;;;1.67;0.87;;;4.80;1.00;;;;;;5075063;28;20189;-73
2022/01/28 06:15:20;;;;;;;5.20;1.17;;;4.90;1.00;;;;;;5058031;28;20469;-73
2022/01/28 06:17:46;;;;;;;4.80;1.33;;;4.90;1.00;;;;;;5055314;28;20425;-74
2022/01/28 06:20:21;;;;;;;2.57;1.10;;;4.90;1.00;;;;;;5067034;28;20899;-75
2022/01/28 06:22:47;;;;;;;7.80;1.20;;;4.90;1.00;;;;;;5072390;28;20158;-73
2022/01/28 06:25:15;;;;;;;3.97;1.37;;;4.90;1.00;;;;;;5063075;28;20436;-73
2022/01/28 06:27:42;;;;;;;34.50;2.00;;;4.90;1.00;;;;;;5064944;28;20433;-73
2022/01/28 06:30:09;;;;;;;1.00;0.90;;;4.90;1.00;;;;;;5056308;28;20421;-74
2022/01/28 06:32:35;;;;;;;4.23;1.13;;;4.80;1.00;;;;;;5064603;28;20424;-73
2022/01/28 06:35:07;;;;;;;2.90;1.20;;;4.80;1.00;;;;;;5059214;28;20433;-73
2022/01/28 06:37:38;;;;;;;2.83;1.10;;;4.80;1.00;;;;;;5074896;28;20592;-73
2022/01/28 06:40:16;;;;;;;2.20;1.33;;;4.80;1.00;;;;;;5061206;28;20774;-74
2022/01/28 06:42:43;;;;;;;7.23;1.87;;;4.80;1.00;;;;;;5060822;28;20504;-74
2022/01/28 06:45:15;;;;;;;3.13;1.87;;;4.80;1.00;;;;;;5061774;28;20424;-74
2022/01/28 06:47:56;;;;;;;3.60;1.33;;;4.80;1.00;;;;;;5059111;28;20432;-73
2022/01/28 06:50:26;;;;;;;10.53;2.03;;;4.80;1.00;;;;;;5056000;28;20431;-74
2022/01/28 06:52:52;;;;;;;1.13;1.03;;;4.70;1.00;;;;;;5056575;28;20429;-74
2022/01/28 06:55:20;;;;;;;4.77;1.00;;;4.70;1.00;;;;;;5055946;28;20469;-74
2022/01/28 06:57:46;;;;;;;3.30;1.23;;;4.70;1.00;;;;;;5057554;28;20529;-74
2022/01/28 07:00:12;;;;;;;2.07;1.50;;;4.70;1.00;;;;;;5062887;28;20414;-73
2022/01/28 07:02:39;;;;;;;5.40;2.30;;;4.70;1.00;;;;;;5067436;28;20182;-74
2022/01/28 07:05:15;;;;;;;6.77;1.43;;;4.60;1.00;;;;;;5051043;28;20914;-75
2022/01/28 07:07:40;;;;;;;2.80;1.33;;;4.60;1.00;;;;;;5054837;28;20429;-74
2022/01/28 07:10:09;;;;;;;5.47;1.63;;;4.60;1.00;;;;;;5054244;28;20421;-74
2022/01/28 07:12:34;;;;;;;3.73;1.83;;;4.60;1.00;;;;;;5054106;28;20188;-74
2022/01/28 07:15:00;;;;;;;10.03;1.97;;;4.60;1.00;;;;;;5054229;28;20472;-74
2022/01/28 07:17:26;;;;;;;6.50;2.57;;;;;;;;;;5066690;28;20278;-74
2022/01/28 07:20:04;;;;;;;7.00;2.13;;;4.70;1.00;;;;;;5067879;28;20525;-74
2022/01/28 07:22:29;;;;;;;21.70;8.10;;;4.70;1.00;;;;;;5064642;28;20420;-74
2022/01/28 07:25:08;;;;;;;5.77;2.63;;;4.70;1.00;;;;;;5053575;28;20881;-74
2022/01/28 07:27:34;;;;;;;3.83;1.40;;;4.70;1.00;;;;;;5053219;28;20175;-74
2022/01/28 07:30:03;;;;;;;2.93;1.40;;;4.70;1.00;;;;;;5057807;28;20425;-74
2022/01/28 07:32:29;;;;;;;6.25;3.03;;;4.70;1.00;;;;;;5064840;28;20172;-74
2022/01/28 07:34:55;;;;;;;4.20;1.57;;;6.60;1.00;;;;;;5059945;28;20228;-73
2022/01/28 07:37:21;;;;;;;5.10;2.10;;;4.70;1.00;;;;;;5053641;28;20184;-74
2022/01/28 07:39:46;;;;;;;27.13;9.53;;;4.70;1.00;;;;;;5055375;28;20180;-74
2022/01/28 07:42:12;;;;;;;60.50;23.50;;;4.60;1.00;;;;;;5064472;28;20648;-74
2022/01/28 07:44:38;;;;;;;21.73;9.40;;;4.60;1.00;;;;;;5065339;28;20168;-74
2022/01/28 07:47:04;;;;;;;22.80;9.90;;;4.50;1.00;;;;;;5053451;28;20493;-74
2022/01/28 07:49:30;;;;;;;18.03;8.30;;;4.40;1.00;;;;;;5057444;28;20257;-74
2022/01/28 07:52:03;;;;;;;38.40;15.07;;;4.30;1.00;;;;;;5062564;28;20453;-74
2022/01/28 07:54:29;;;;;;;9.53;4.93;;;4.30;1.00;;;;;;5069643;28;20556;-73
2022/01/28 07:56:55;;;;;;;5.43;2.40;;;4.30;1.00;;;;;;5057434;28;20452;-74
2022/01/28 07:59:21;;;;;;;32.07;13.17;;;4.30;1.00;;;;;;5058208;28;20589;-74
2022/01/28 08:01:47;;;;;;;12.87;5.97;;;4.20;1.00;;;;;;5064867;28;20179;-74
2022/01/28 08:04:15;;;;;;;9.33;4.77;;;4.20;1.00;;;;;;5055890;28;20446;-73
2022/01/28 08:06:41;;;;;;;7.43;3.80;;;4.20;1.00;;;;;;5053375;28;20413;-74
2022/01/28 08:09:08;;;;;;;16.70;8.80;;;4.20;1.00;;;;;;5053565;28;20497;-75
2022/01/28 08:11:38;;;;;;;2.97;1.90;;;4.20;1.00;;;;;;5053446;28;20865;-73
2022/01/28 08:14:04;;;;;;;1.47;1.37;;;4.40;1.00;;;;;;5053025;28;20406;-73
2022/01/28 08:16:30;;;;;;;13.60;1.70;;;4.40;1.00;;;;;;5063594;28;20457;-73
2022/01/28 08:18:56;;;;;;;3.47;1.30;;;4.50;1.00;;;;;;5055054;28;20203;-73
2022/01/28 08:21:21;;;;;;;3.10;1.73;;;4.70;1.00;;;;;;5052689;28;20182;-73
2022/01/28 08:23:56;;;;;;;16.67;1.70;;;4.90;1.00;;;;;;5052006;28;20262;-74
2022/01/28 08:26:22;;;;;;;6.60;2.80;;;4.90;1.00;;;;;;5066440;28;20622;-74
2022/01/28 08:28:48;;;;;;;5.10;1.47;;;5.00;1.00;;;;;;5060701;28;20417;-74
2022/01/28 08:31:14;;;;;;;9.40;2.83;;;5.20;1.00;;;;;;5059828;28;20172;-74
2022/01/28 08:33:40;;;;;;;3.47;1.50;;;5.20;1.00;;;;;;5065073;28;20895;-74
2022/01/28 08:36:06;;;;;;;1.73;1.40;;;5.30;1.00;;;;;;5054560;28;20454;-74
2022/01/28 08:38:39;;;;;;;6.83;2.30;;;5.40;1.00;;;;;;5067845;28;20663;-74
2022/01/28 08:41:05;;;;;;;5.77;1.70;;;5.40;1.00;;;;;;5056805;28;21015;-74
2022/01/28 08:43:32;;;;;;;21.77;2.23;;;5.40;1.00;;;;;;5065019;28;20420;-74
2022/01/28 08:45:58;;;;;;;6.13;1.83;;;;;;;;;;5075080;28;20393;-75
2022/01/28 08:48:24;;;;;;;5.17;3.27;;;5.70;1.00;;;;;;5064887;28;20934;-75
2022/01/28 08:50:50;;;;;;;6.63;1.87;;;5.80;1.00;;;;;;5063231;28;20418;-74
2022/01/28 08:53:16;;;;;;;6.23;1.70;;;;;;;;;;5071183;28;20259;-74
2022/01/28 08:55:42;;;;;;;7.37;2.40;;;5.90;1.00;;;;;;5056632;28;20782;-74
2022/01/28 08:58:09;;;;;;;10.20;6.00;;;6.00;1.00;;;;;;5064705;28;20424;-74
2022/01/28 09:00:35;;;;;;;1.57;1.20;;;6.00;1.00;;;;;;5091936;28;20584;-74
2022/01/28 09:03:00;;;;;;;1.33;1.27;;;6.10;1.00;;;;;;5075776;28;20429;-73
2022/01/28 09:05:28;;;;;;;7.23;1.80;;;6.10;1.00;;;;;;5062987;28;20422;-74
2022/01/28 09:07:55;;;;;;;13.07;1.77;;;6.20;1.00;;;;;;5075901;28;20508;-73
2022/01/28 09:10:25;;;;;;;7.82;2.03;;;6.30;1.00;;;;;;5076573;28;20745;-73
2022/01/28 09:15:25;;;;;;;4.87;2.00;;;6.30;1.00;;;;;;5069976;28;20976;-73
2022/01/28 09:17:51;;;;;;;7.63;2.10;;;6.40;1.00;;;;;;5055682;28;20429;-74
2022/01/28 09:20:17;;;;;;;21.87;1.90;;;6.50;1.00;;;;;;5055447;28;20586;-74
2022/01/28 09:22:43;;;;;;;11.57;2.03;;;6.50;1.00;;;;;;5055211;28;20183;-74
2022/01/28 09:25:09;;;;;;;5.97;2.13;;;6.50;1.00;;;;;;5060267;28;20175;-74
2022/01/28 09:27:34;;;;;;;9.10;1.50;;;6.30;1.00;;;;;;5065167;28;20183;-73
2022/01/28 09:30:00;;;;;;;5.63;1.60;;;6.30;1.00;;;;;;5072146;28;20770;-74
2022/01/28 09:32:26;;;;;;;2.03;1.80;;;6.40;1.00;;;;;;5060206;28;20251;-73
2022/01/28 09:34:51;;;;;;;3.03;1.60;;;6.40;1.00;;;;;;5068003;28;20607;-73
2022/01/28 09:37:17;;;;;;;2.53;2.17;;;6.40;1.00;;;;;;5070097;28;20254;-74
2022/01/28 09:39:45;;;;;;;5.30;2.10;;;6.40;1.00;;;;;;5068643;28;20179;-73
2022/01/28 09:42:15;;;;;;;5.47;2.03;;;6.40;1.00;;;;;;5056049;28;20162;-74
2022/01/28 09:44:42;;;;;;;4.27;1.67;;;6.40;1.00;;;;;;5074778;28;20445;-74
2022/01/28 09:47:10;;;;;;;6.30;2.10;;;6.60;1.00;;;;;;5074968;28;20447;-74
2022/01/28 09:49:37;;;;;;;2.70;1.80;;;7.50;1.00;;;;;;5074193;28;20466;-74
2022/01/28 09:52:04;;;;;;;3.63;1.87;;;6.80;1.00;;;;;;5074327;28;20413;-74
2022/01/28 09:54:30;;;;;;;1.80;1.37;;;7.00;1.00;;;;;;5075219;28;20795;-73
2022/01/28 09:56:56;;;;;;;2.70;1.77;;;7.10;1.00;;;;;;5073878;28;20461;-74
2022/01/28 09:59:21;;;;;;;6.70;2.10;;;7.20;1.00;;;;;;5074451;28;20417;-74
2022/01/28 10:01:52;;;;;;;4.30;2.07;;;7.20;1.00;;;;;;5074424;28;20225;-74
2022/01/28 10:04:18;;;;;;;3.60;2.00;;;7.30;1.00;;;;;;5074283;28;20191;-74
2022/01/28 10:06:47;;;;;;;4.27;1.60;;;7.30;1.00;;;;;;5074352;28;20440;-74
2022/01/28 10:09:18;;;;;;;10.43;1.83;;;7.40;1.00;;;;;;5054615;28;21135;-74
2022/01/28 10:11:49;;;;;;;9.97;1.70;;;7.50;1.00;;;;;;5074491;28;20972;-74
2022/01/28 10:14:21;;;;;;;8.00;1.97;;;7.50;1.00;;;;;;5074116;28;20412;-74
2022/01/28 10:17:01;;;;;;;4.97;2.07;;;7.60;1.00;;;;;;5073985;28;20486;-74
2022/01/28 10:19:38;;;;;;;8.23;1.90;;;7.70;1.00;;;;;;5073985;28;20471;-74
2022/01/28 10:22:17;;;;;;;8.10;1.97;;;7.70;1.00;;;;;;5071426;28;20413;-74
2022/01/28 10:24:43;;;;;;;4.30;1.70;;;7.90;1.00;;;;;;5074038;28;20409;-73
2022/01/28 10:27:09;;;;;;;3.73;1.43;;;7.90;1.00;;;;;;5074076;28;20425;-74
2022/01/28 10:29:37;;;;;;;5.00;1.80;;;7.80;1.00;;;;;;5074063;28;20413;-74
2022/01/28 10:32:13;;;;;;;2.83;1.90;;;7.80;1.00;;;;;;5067260;28;20924;-74
2022/01/28 10:34:49;;;;;;;3.23;1.30;;;7.90;1.00;;;;;;5048941;28;20412;-74
2022/01/28 10:37:16;;;;;;;5.07;1.70;;;8.00;1.00;;;;;;5073483;28;20551;-74
2022/01/28 10:40:00;;;;;;;6.80;2.00;;;8.10;1.00;;;;;;5073676;28;20413;-74
2022/01/28 10:42:25;;;;;;;1.30;0.97;;;8.20;1.00;;;;;;5059918;28;20779;-74
2022/01/28 10:44:55;;;;;;;1.90;1.80;;;8.40;1.00;;;;;;5065278;28;20428;-74
2022/01/28 10:47:35;;;;;;;11.80;1.80;;;8.40;1.00;;;;;;5073461;28;20175;-74
2022/01/28 10:50:28;;;;;;;3.03;1.40;;;8.40;1.00;;;;;;5073309;28;20523;-74
2022/01/28 10:52:58;;;;;;;6.03;1.53;;;8.50;1.00;;;;;;5073061;28;20834;-74
2022/01/28 10:55:24;;;;;;;1.80;1.67;;;8.70;1.00;;;;;;5069991;28;20542;-74
2022/01/28 10:57:58;;;;;;;6.27;1.60;;;8.70;1.00;;;;;;5064754;28;20505;-74
2022/01/28 11:00:28;;;;;;;3.20;1.27;;;8.70;1.00;;;;;;5067182;28;20203;-74
2022/01/28 11:02:55;;;;;;;1.70;1.17;;;8.40;1.00;;;;;;5065918;28;20413;-74
2022/01/28 11:05:21;;;;;;;3.53;1.37;;;8.40;1.00;;;;;;5073189;28;20417;-74
2022/01/28 11:07:48;;;;;;;10.57;2.40;;;8.50;1.00;;;;;;5064594;28;20414;-74
2022/01/28 11:10:14;;;;;;;17.00;1.67;;;8.70;1.00;;;;;;5073457;28;20471;-73
2022/01/28 11:12:40;;;;;;;6.20;1.63;;;8.70;1.00;;;;;;5072985;28;20470;-74
2022/01/28 11:15:07;;;;;;;8.83;1.90;;;8.70;1.00;;;;;;5073007;28;20511;-74
2022/01/28 11:17:35;;;;;;;3.80;1.20;;;8.70;1.00;;;;;;5073455;28;20444;-74
2022/01/28 11:20:01;;;;;;;2.73;1.20;;;8.70;1.00;;;;;;5073020;28;20422;-74
2022/01/28 11:22:43;;;;;;;3.30;1.40;;;8.70;1.00;;;;;;5072986;28;20413;-74
2022/01/28 11:25:38;;;;;;;6.37;1.50;;;8.50;1.00;;;;;;5072951;28;20413;-74
2022/01/28 11:28:08;;;;;;;8.97;2.23;;;8.50;1.00;;;;;;5072848;28;20417;-74
2022/01/28 11:30:35;;;;;;;4.53;1.10;;;8.50;1.00;;;;;;5072812;28;20413;-74
2022/01/28 11:33:07;;;;;;;1.67;1.30;;;9.50;1.00;;;;;;5059705;28;20476;-74
2022/01/28 11:35:39;;;;;;;6.03;1.13;;;8.50;1.00;;;;;;5067945;28;20465;-74
2022/01/28 11:38:23;;;;;;;3.03;1.77;;;8.50;1.00;;;;;;5073012;28;20492;-74
2022/01/28 11:40:57;;;;;;;10.77;2.20;;;8.50;1.00;;;;;;5072989;28;20401;-74
2022/01/28 11:43:27;;;;;;;4.83;1.37;;;8.40;1.00;;;;;;5072906;28;20511;-74
2022/01/28 11:46:09;;;;;;;6.20;1.77;;;8.50;1.00;;;;;;5072693;28;20466;-73
2022/01/28 11:48:54;;;;;;;1.73;1.40;;;8.40;1.00;;;;;;5072598;28;20839;-74
2022/01/28 11:51:22;;;;;;;1.53;1.37;;;8.30;1.00;;;;;;5072590;28;20508;-74
2022/01/28 11:53:58;;;;;;;3.80;1.13;;;8.30;1.00;;;;;;5072719;28;20904;-73
2022/01/28 11:56:25;;;;;;;7.13;1.20;;;8.50;1.00;;;;;;5060915;28;20465;-74
2022/01/28 11:59:11;;;;;;;6.27;2.13;;;8.50;1.00;;;;;;5072601;28;20417;-74
2022/01/28 12:01:39;;;;;;;11.30;1.90;;;8.60;1.00;;;;;;5072229;28;20432;-74
2022/01/28 12:04:24;;;;;;;8.43;2.33;;;8.50;1.00;;;;;;5072485;28;20440;-74
2022/01/28 12:07:15;;;;;;;1.33;1.00;;;8.50;1.00;;;;;;5071712;28;20903;-74
2022/01/28 12:09:44;;;;;;;7.27;1.60;;;8.50;1.00;;;;;;5068373;28;20904;-74
2022/01/28 12:12:12;;;;;;;4.43;1.37;;;8.50;1.00;;;;;;5072962;28;20500;-74
2022/01/28 12:14:49;;;;;;;6.17;1.80;;;8.40;1.00;;;;;;5076559;28;20427;-74
2022/01/28 12:17:31;;;;;;;1.17;0.90;;;8.80;1.00;;;;;;5076486;28;20887;-74
2022/01/28 12:20:24;;;;;;;10.67;2.13;;;8.80;1.00;;;;;;5043434;28;20406;-74
2022/01/28 12:23:08;;;;;;;12.67;2.57;;;8.60;1.00;;;;;;5056198;28;20406;-74
2022/01/28 12:25:36;;;;;;;2.40;1.40;;;7.90;1.00;;;;;;5056387;28;20401;-74
2022/01/28 12:28:20;;;;;;;8.10;1.80;;;8.70;1.00;;;;;;5049698;28;20825;-74
2022/01/28 12:30:59;;;;;;;6.13;1.47;;;8.60;1.00;;;;;;5062117;28;20433;-73
2022/01/28 12:33:27;;;;;;;1.70;1.40;;;8.60;1.00;;;;;;5058415;28;20437;-73
2022/01/28 12:35:56;;;;;;;4.17;1.63;;;8.50;1.00;;;;;;5073832;28;20471;-74
2022/01/28 12:38:24;;;;;;;3.60;1.77;;;8.50;1.00;;;;;;5076020;28;20778;-73
2022/01/28 12:40:53;;;;;;;5.53;1.50;;;8.60;1.00;;;;;;5075761;28;20511;-73
2022/01/28 12:43:25;;;;;;;2.70;1.40;;;8.60;1.00;;;;;;5076376;28;20417;-73
2022/01/28 12:46:02;;;;;;;5.83;1.90;;;8.50;1.00;;;;;;5075816;28;20943;-74
2022/01/28 12:48:28;;;;;;;3.57;1.57;;;8.40;1.00;;;;;;5075951;28;20915;-74
2022/01/28 12:50:55;;;;;;;2.90;1.43;;;8.30;1.00;;;;;;5075530;28;20420;-73
2022/01/28 12:53:39;;;;;;;3.27;2.33;;;8.40;1.00;;;;;;5075677;28;20182;-74
2022/01/28 12:56:07;;;;;;;7.73;2.00;;;8.40;1.00;;;;;;5058622;28;20552;-72
2022/01/28 12:58:40;;;;;;;5.70;2.13;;;8.30;1.00;;;;;;5061660;28;20563;-73
2022/01/28 13:01:13;;;;;;;5.83;2.20;;;8.50;1.00;;;;;;5058265;28;20426;-73
2022/01/28 13:04:01;;;;;;;6.77;1.70;;;8.50;1.00;;;;;;5063486;28;20440;-73
2022/01/28 13:09:16;;;;;;;4.97;1.40;;;8.50;1.00;;;;;;5066754;28;20429;-74
2022/01/28 13:11:52;;;;;;;6.43;1.57;;;8.60;1.00;;;;;;5058320;28;20762;-75
2022/01/28 13:14:27;;;;;;;11.40;2.63;;;8.80;1.00;;;;;;5066681;28;20413;-74
2022/01/28 13:16:53;;;;;;;8.77;1.87;;;8.80;1.00;;;;;;5056330;28;20469;-74
2022/01/28 13:19:20;;;;;;;7.13;1.60;;;8.80;1.00;;;;;;5067163;28;20400;-74
2022/01/28 13:21:48;;;;;;;6.10;1.50;;;8.80;1.00;;;;;;5076018;28;20433;-75
2022/01/28 13:24:33;;;;;;;9.13;1.70;;;8.70;1.00;;;;;;5055576;28;20758;-76
2022/01/28 13:27:04;;;;;;;5.60;1.43;;;8.70;1.00;;;;;;5056600;28;20402;-76
2022/01/28 13:29:56;;;;;;;5.73;1.73;;;8.70;1.00;;;;;;5069455;28;20426;-77
2022/01/28 13:32:51;;;;;;;5.67;1.43;;;8.60;1.00;;;;;;5063537;28;20413;-76
2022/01/28 13:35:25;;;;;;;15.80;1.60;;;8.40;1.00;;;;;;5050175;28;20428;-76
2022/01/28 13:38:01;;;;;;;16.73;2.00;;;8.60;1.00;;;;;;5036238;28;20406;-76
2022/01/28 13:40:39;;;;;;;13.90;1.47;;;8.50;1.00;;;;;;5047433;28;20414;-76
2022/01/28 13:43:24;;;;;;;4.93;2.20;;;8.40;1.00;;;;;;5055709;28;20877;-76
2022/01/28 13:46:14;;;;;;;8.83;1.53;;;8.40;1.00;;;;;;5068476;28;20432;-76
2022/01/28 13:48:47;;;;;;;5.73;1.73;;;8.40;1.00;;;;;;5062448;28;20413;-77
2022/01/28 13:51:16;;;;;;;3.37;1.30;;;8.40;1.00;;;;;;5069315;28;20425;-73
2022/01/28 13:56:35;;;;;;;4.00;1.67;;;8.80;1.00;;;;;;5070510;28;20783;-73
2022/01/28 13:59:44;;;;;;;5.40;1.33;;;8.80;1.00;;;;;;5063950;28;20425;-78
2022/01/28 14:02:21;;;;;;;9.77;1.57;;;8.80;1.00;;;;;;5042706;28;20410;-78
2022/01/28 14:04:57;;;;;;;7.80;1.80;;;8.60;1.00;;;;;;5068446;28;20425;-77
2022/01/28 14:07:52;;;;;;;3.00;1.33;;;8.60;1.00;;;;;;5065345;28;20421;-78
2022/01/28 14:10:56;;;;;;;6.77;1.60;;;8.60;1.00;;;;;;5068168;28;20767;-77
2022/01/28 14:13:23;;;;;;;4.47;1.50;;;8.60;1.00;;;;;;5074487;28;20500;-77
2022/01/28 14:16:14;;;;;;;4.37;1.90;;;8.60;1.00;;;;;;5065795;28;20442;-77
2022/01/28 14:19:10;;;;;;;5.13;1.77;;;8.50;1.00;;;;;;5054237;28;20429;-76
2022/01/28 14:21:41;;;;;;;5.10;1.90;;;8.30;1.00;;;;;;5059144;28;20417;-76
2022/01/28 14:24:07;;;;;;;6.33;1.60;;;8.10;1.00;;;;;;5072272;28;20414;-76
2022/01/28 14:26:42;;;;;;;7.60;1.97;;;8.10;1.00;;;;;;5058583;28;20421;-76
2022/01/28 14:31:46;;;;;;;8.27;1.63;;;8.00;1.00;;;;;;5066173;28;20437;-72
2022/01/28 14:34:12;;;;;;;4.60;2.23;;;8.00;1.00;;;;;;5058715;28;20436;-73
2022/01/28 14:36:40;;;;;;;11.10;2.30;;;8.00;1.00;;;;;;5066426;28;20255;-73
2022/01/28 14:39:07;;;;;;;8.63;2.40;;;8.00;1.00;;;;;;5061081;28;20175;-72
2022/01/28 14:41:34;;;;;;;1.67;1.30;;;8.10;1.00;;;;;;5072080;28;20425;-72
2022/01/28 14:43:59;;;;;;;2.03;1.57;;;8.10;1.00;;;;;;5071908;28;20432;-72
2022/01/28 14:46:28;;;;;;;15.30;1.93;;;8.30;1.00;;;;;;5071819;28;20425;-72
2022/01/28 14:48:53;;;;;;;1.90;1.20;;;8.30;1.00;;;;;;5074309;28;20647;-73
2022/01/28 14:51:28;;;;;;;5.10;1.30;;;8.30;1.00;;;;;;5064756;28;20472;-73
2022/01/28 14:53:54;;;;;;;3.53;1.63;;;8.30;1.00;;;;;;5074023;28;20239;-73
2022/01/28 14:56:20;;;;;;;3.73;1.90;;;8.30;1.00;;;;;;5062321;28;20493;-72
2022/01/28 14:58:46;;;;;;;9.10;2.03;;;8.30;1.00;;;;;;5055966;28;20175;-73